sensor_id;sensor_type;location;lat;lon;timestamp;pressure;altitude;pressure_sealevel;temperature;humidity
64460;BME280;50828;53.756;21.140;2023-05-12T00:02:10;100715.19;;;8.17;45.37
64460;BME280;50828;53.756;21.140;2023-05-12T00:07:18;100717.96;;;8.10;45.52
64460;BME280;50828;53.756;21.140;2023-05-12T00:12:26;100717.23;;;8.03;45.66
64460;BME280;50828;53.756;21.140;2023-05-12T00:17:34;100713.73;;;7.94;45.74
64460;BME280;50828;53.756;21.140;2023-05-12T00:22:42;100713.48;;;7.88;45.62
64460;BME280;50828;53.756;21.140;2023-05-12T00:27:49;100715.75;;;7.80;45.58
64460;BME280;50828;53.756;21.140;2023-05-12T00:32:57;100714.89;;;7.71;45.65
64460;BME280;50828;53.756;21.140;2023-05-12T00:38:05;100721.22;;;7.59;45.48
64460;BME280;50828;53.756;21.140;2023-05-12T00:43:12;100724.76;;;7.48;45.55
64460;BME280;50828;53.756;21.140;2023-05-12T00:48:20;100723.23;;;7.35;45.88
64460;BME280;50828;53.756;21.140;2023-05-12T00:53:28;100727.83;;;7.23;45.75
64460;BME280;50828;53.756;21.140;2023-05-12T00:58:52;100728.73;;;7.09;46.21
64460;BME280;50828;53.756;21.140;2023-05-12T01:04:00;100729.27;;;6.97;46.07
64460;BME280;50828;53.756;21.140;2023-05-12T01:09:08;100736.31;;;6.83;46.09
64460;BME280;50828;53.756;21.140;2023-05-12T01:14:16;100741.60;;;6.69;46.33
64460;BME280;50828;53.756;21.140;2023-05-12T01:19:37;100739.02;;;6.54;46.34
64460;BME280;50828;53.756;21.140;2023-05-12T01:24:51;100742.00;;;6.40;46.57
64460;BME280;50828;53.756;21.140;2023-05-12T01:30:03;100747.23;;;6.26;46.53
64460;BME280;50828;53.756;21.140;2023-05-12T01:35:12;100748.79;;;6.14;46.78
64460;BME280;50828;53.756;21.140;2023-05-12T01:40:25;100756.61;;;6.02;47.30
64460;BME280;50828;53.756;21.140;2023-05-12T01:45:34;100752.85;;;5.91;47.12
64460;BME280;50828;53.756;21.140;2023-05-12T01:50:41;100758.38;;;5.81;47.44
64460;BME280;50828;53.756;21.140;2023-05-12T01:55:53;100761.27;;;5.72;47.72
64460;BME280;50828;53.756;21.140;2023-05-12T02:01:02;100765.73;;;5.62;47.64
64460;BME280;50828;53.756;21.140;2023-05-12T02:06:11;100771.06;;;5.53;47.80
64460;BME280;50828;53.756;21.140;2023-05-12T02:11:18;100772.55;;;5.43;47.84
64460;BME280;50828;53.756;21.140;2023-05-12T02:16:26;100768.77;;;5.33;48.30
64460;BME280;50828;53.756;21.140;2023-05-12T02:21:34;100770.94;;;5.25;48.38
64460;BME280;50828;53.756;21.140;2023-05-12T02:26:42;100772.91;;;5.17;48.63
64460;BME280;50828;53.756;21.140;2023-05-12T02:31:50;100782.91;;;5.12;48.91
64460;BME280;50828;53.756;21.140;2023-05-12T02:36:58;100787.15;;;5.07;49.28
64460;BME280;50828;53.756;21.140;2023-05-12T02:42:07;100789.42;;;5.05;49.63
64460;BME280;50828;53.756;21.140;2023-05-12T02:47:15;100792.54;;;5.08;49.60
64460;BME280;50828;53.756;21.140;2023-05-12T02:52:22;100793.53;;;5.16;49.55
64460;BME280;50828;53.756;21.140;2023-05-12T02:57:30;100796.41;;;5.28;49.40
64460;BME280;50828;53.756;21.140;2023-05-12T03:02:39;100798.55;;;5.45;49.76
64460;BME280;50828;53.756;21.140;2023-05-12T03:07:48;100798.75;;;5.63;49.76
64460;BME280;50828;53.756;21.140;2023-05-12T03:12:56;100802.59;;;5.82;49.70
64460;BME280;50828;53.756;21.140;2023-05-12T03:18:03;100801.20;;;6.01;49.46
64460;BME280;50828;53.756;21.140;2023-05-12T03:23:11;100800.83;;;6.21;49.43
64460;BME280;50828;53.756;21.140;2023-05-12T03:28:19;100798.48;;;6.41;49.14
64460;BME280;50828;53.756;21.140;2023-05-12T03:33:28;100795.29;;;6.59;49.26
64460;BME280;50828;53.756;21.140;2023-05-12T03:38:35;100794.51;;;6.79;49.29
64460;BME280;50828;53.756;21.140;2023-05-12T03:43:43;100801.52;;;7.02;49.26
64460;BME280;50828;53.756;21.140;2023-05-12T03:48:50;100802.73;;;7.26;49.11
64460;BME280;50828;53.756;21.140;2023-05-12T03:53:58;100807.09;;;7.51;49.08
64460;BME280;50828;53.756;21.140;2023-05-12T03:59:05;100810.33;;;7.76;48.87
64460;BME280;50828;53.756;21.140;2023-05-12T04:04:13;100818.83;;;8.02;48.89
64460;BME280;50828;53.756;21.140;2023-05-12T04:09:20;100822.23;;;8.26;48.91
64460;BME280;50828;53.756;21.140;2023-05-12T04:14:28;100826.44;;;8.45;48.71
64460;BME280;50828;53.756;21.140;2023-05-12T04:19:47;100829.79;;;8.62;48.89
64460;BME280;50828;53.756;21.140;2023-05-12T04:24:55;100828.05;;;8.78;48.59
64460;BME280;50828;53.756;21.140;2023-05-12T04:30:03;100830.60;;;8.98;48.28
64460;BME280;50828;53.756;21.140;2023-05-12T04:35:14;100824.64;;;9.21;47.98
64460;BME280;50828;53.756;21.140;2023-05-12T04:40:21;100827.80;;;9.50;47.92
64460;BME280;50828;53.756;21.140;2023-05-12T04:45:29;100829.31;;;9.82;48.11
64460;BME280;50828;53.756;21.140;2023-05-12T04:50:37;100833.91;;;10.15;48.03
64460;BME280;50828;53.756;21.140;2023-05-12T04:55:45;100835.65;;;10.48;47.78
64460;BME280;50828;53.756;21.140;2023-05-12T05:00:55;100841.14;;;10.84;47.84
64460;BME280;50828;53.756;21.140;2023-05-12T05:06:04;100841.25;;;11.21;47.57
64460;BME280;50828;53.756;21.140;2023-05-12T05:11:16;100841.53;;;11.57;46.76
64460;BME280;50828;53.756;21.140;2023-05-12T05:16:24;100845.90;;;11.90;46.54
64460;BME280;50828;53.756;21.140;2023-05-12T05:21:32;100851.32;;;12.23;45.80
64460;BME280;50828;53.756;21.140;2023-05-12T05:26:41;100853.63;;;12.52;45.35
64460;BME280;50828;53.756;21.140;2023-05-12T05:31:49;100852.70;;;12.82;44.96
64460;BME280;50828;53.756;21.140;2023-05-12T05:36:57;100856.27;;;13.14;44.44
64460;BME280;50828;53.756;21.140;2023-05-12T05:42:06;100854.17;;;13.45;43.94
64460;BME280;50828;53.756;21.140;2023-05-12T05:47:13;100847.38;;;13.73;43.54
64460;BME280;50828;53.756;21.140;2023-05-12T05:52:22;100855.42;;;14.00;43.21
64460;BME280;50828;53.756;21.140;2023-05-12T05:57:30;100856.48;;;14.26;42.84
64460;BME280;50828;53.756;21.140;2023-05-12T06:02:38;100856.81;;;14.50;42.39
64460;BME280;50828;53.756;21.140;2023-05-12T06:07:46;100865.73;;;14.73;42.03
64460;BME280;50828;53.756;21.140;2023-05-12T06:12:54;100869.31;;;14.92;41.35
64460;BME280;50828;53.756;21.140;2023-05-12T06:18:03;100871.99;;;15.06;40.87
64460;BME280;50828;53.756;21.140;2023-05-12T06:23:11;100871.06;;;15.23;40.07
64460;BME280;50828;53.756;21.140;2023-05-12T06:28:19;100870.86;;;15.38;39.98
64460;BME280;50828;53.756;21.140;2023-05-12T06:33:26;100874.13;;;15.55;39.71
64460;BME280;50828;53.756;21.140;2023-05-12T06:38:34;100871.89;;;15.75;39.55
64460;BME280;50828;53.756;21.140;2023-05-12T06:43:42;100871.05;;;15.99;39.33
64460;BME280;50828;53.756;21.140;2023-05-12T06:48:51;100876.38;;;16.35;38.94
64460;BME280;50828;53.756;21.140;2023-05-12T06:54:00;100878.48;;;16.68;38.19
64460;BME280;50828;53.756;21.140;2023-05-12T06:59:08;100881.41;;;16.98;37.52
64460;BME280;50828;53.756;21.140;2023-05-12T07:04:16;100876.42;;;17.17;36.65
64460;BME280;50828;53.756;21.140;2023-05-12T07:09:25;100872.40;;;17.32;36.19
64460;BME280;50828;53.756;21.140;2023-05-12T07:14:33;100873.75;;;17.42;35.69
64460;BME280;50828;53.756;21.140;2023-05-12T07:19:41;100874.42;;;17.50;34.70
64460;BME280;50828;53.756;21.140;2023-05-12T07:24:49;100868.58;;;17.55;34.11
64460;BME280;50828;53.756;21.140;2023-05-12T07:29:57;100869.13;;;17.61;33.83
64460;BME280;50828;53.756;21.140;2023-05-12T07:35:06;100870.50;;;17.68;33.38
64460;BME280;50828;53.756;21.140;2023-05-12T07:40:14;100868.77;;;17.76;32.85
64460;BME280;50828;53.756;21.140;2023-05-12T07:45:21;100869.89;;;17.88;32.41
64460;BME280;50828;53.756;21.140;2023-05-12T07:50:29;100868.07;;;18.01;31.58
64460;BME280;50828;53.756;21.140;2023-05-12T07:55:37;100867.05;;;18.18;31.40
64460;BME280;50828;53.756;21.140;2023-05-12T08:00:44;100863.98;;;18.34;30.45
64460;BME280;50828;53.756;21.140;2023-05-12T08:05:52;100864.24;;;18.47;30.36
64460;BME280;50828;53.756;21.140;2023-05-12T08:11:00;100862.06;;;18.60;30.00
64460;BME280;50828;53.756;21.140;2023-05-12T08:16:07;100859.17;;;18.68;29.92
64460;BME280;50828;53.756;21.140;2023-05-12T08:21:15;100859.58;;;18.76;29.71
64460;BME280;50828;53.756;21.140;2023-05-12T08:26:23;100861.30;;;18.83;29.32
64460;BME280;50828;53.756;21.140;2023-05-12T08:31:31;100865.34;;;18.87;29.03
64460;BME280;50828;53.756;21.140;2023-05-12T08:36:39;100872.02;;;18.92;28.77
64460;BME280;50828;53.756;21.140;2023-05-12T08:41:52;100866.59;;;18.96;28.45
64460;BME280;50828;53.756;21.140;2023-05-12T08:47:02;100871.03;;;19.02;28.49
64460;BME280;50828;53.756;21.140;2023-05-12T08:52:11;100871.55;;;19.08;28.32
64460;BME280;50828;53.756;21.140;2023-05-12T08:57:23;100872.98;;;19.11;27.98
64460;BME280;50828;53.756;21.140;2023-05-12T09:02:35;100865.20;;;19.13;27.93
64460;BME280;50828;53.756;21.140;2023-05-12T09:07:57;100861.09;;;19.15;27.90
64460;BME280;50828;53.756;21.140;2023-05-12T09:13:14;100866.84;;;19.20;27.87
64460;BME280;50828;53.756;21.140;2023-05-12T09:18:23;100865.88;;;19.24;27.37
64460;BME280;50828;53.756;21.140;2023-05-12T09:23:31;100852.87;;;19.27;27.24
64460;BME280;50828;53.756;21.140;2023-05-12T09:28:39;100857.47;;;19.33;27.55
64460;BME280;50828;53.756;21.140;2023-05-12T09:33:47;100853.02;;;19.38;27.43
64460;BME280;50828;53.756;21.140;2023-05-12T09:39:02;100849.14;;;19.42;27.48
64460;BME280;50828;53.756;21.140;2023-05-12T09:44:13;100846.58;;;19.46;27.26
64460;BME280;50828;53.756;21.140;2023-05-12T09:49:22;100845.56;;;19.51;27.08
64460;BME280;50828;53.756;21.140;2023-05-12T09:54:32;100847.58;;;19.58;27.15
64460;BME280;50828;53.756;21.140;2023-05-12T09:59:40;100842.85;;;19.65;27.00
64460;BME280;50828;53.756;21.140;2023-05-12T10:04:51;100841.03;;;19.71;27.19
64460;BME280;50828;53.756;21.140;2023-05-12T10:10:01;100833.86;;;19.77;26.86
64460;BME280;50828;53.756;21.140;2023-05-12T10:15:11;100827.27;;;19.82;26.74
64460;BME280;50828;53.756;21.140;2023-05-12T10:20:19;100824.58;;;19.87;26.82
64460;BME280;50828;53.756;21.140;2023-05-12T10:25:27;100831.20;;;19.95;26.89
64460;BME280;50828;53.756;21.140;2023-05-12T10:30:36;100825.75;;;20.02;26.75
64460;BME280;50828;53.756;21.140;2023-05-12T10:35:44;100830.81;;;20.09;26.76
64460;BME280;50828;53.756;21.140;2023-05-12T10:40:55;100822.50;;;20.13;26.65
64460;BME280;50828;53.756;21.140;2023-05-12T10:46:07;100821.77;;;20.13;26.18
64460;BME280;50828;53.756;21.140;2023-05-12T10:51:20;100818.78;;;20.12;26.11
64460;BME280;50828;53.756;21.140;2023-05-12T10:56:29;100812.11;;;20.15;26.46
64460;BME280;50828;53.756;21.140;2023-05-12T11:01:38;100813.41;;;20.17;26.41
64460;BME280;50828;53.756;21.140;2023-05-12T11:06:55;100804.14;;;20.22;26.06
64460;BME280;50828;53.756;21.140;2023-05-12T11:12:06;100800.98;;;20.26;26.00
64460;BME280;50828;53.756;21.140;2023-05-12T11:17:16;100806.02;;;20.31;25.88
64460;BME280;50828;53.756;21.140;2023-05-12T11:22:23;100796.98;;;20.35;25.92
64460;BME280;50828;53.756;21.140;2023-05-12T11:27:31;100800.99;;;20.39;26.09
64460;BME280;50828;53.756;21.140;2023-05-12T11:32:38;100796.36;;;20.46;26.07
64460;BME280;50828;53.756;21.140;2023-05-12T11:37:47;100791.97;;;20.53;26.01
64460;BME280;50828;53.756;21.140;2023-05-12T11:42:55;100790.77;;;20.60;26.24
64460;BME280;50828;53.756;21.140;2023-05-12T11:48:09;100789.91;;;20.67;25.99
64460;BME280;50828;53.756;21.140;2023-05-12T11:53:18;100789.28;;;20.71;25.80
64460;BME280;50828;53.756;21.140;2023-05-12T11:58:27;100786.95;;;20.73;25.70
64460;BME280;50828;53.756;21.140;2023-05-12T12:03:45;100779.14;;;20.72;25.69
64460;BME280;50828;53.756;21.140;2023-05-12T12:08:55;100783.85;;;20.71;25.68
64460;BME280;50828;53.756;21.140;2023-05-12T12:14:03;100790.31;;;20.71;25.53
64460;BME280;50828;53.756;21.140;2023-05-12T12:19:10;100793.83;;;20.69;25.39
64460;BME280;50828;53.756;21.140;2023-05-12T12:24:18;100790.48;;;20.69;25.42
64460;BME280;50828;53.756;21.140;2023-05-12T12:29:26;100781.80;;;20.68;25.43
64460;BME280;50828;53.756;21.140;2023-05-12T12:34:33;100780.30;;;20.66;25.37
64460;BME280;50828;53.756;21.140;2023-05-12T12:39:41;100777.20;;;20.64;25.43
64460;BME280;50828;53.756;21.140;2023-05-12T12:44:48;100769.61;;;20.63;25.60
64460;BME280;50828;53.756;21.140;2023-05-12T12:49:56;100764.73;;;20.61;25.54
64460;BME280;50828;53.756;21.140;2023-05-12T12:55:05;100765.14;;;20.60;25.50
64460;BME280;50828;53.756;21.140;2023-05-12T13:00:14;100762.90;;;20.59;25.37
64460;BME280;50828;53.756;21.140;2023-05-12T13:05:22;100753.88;;;20.58;25.54
64460;BME280;50828;53.756;21.140;2023-05-12T13:10:29;100755.73;;;20.56;25.53
64460;BME280;50828;53.756;21.140;2023-05-12T13:15:37;100753.04;;;20.54;25.51
64460;BME280;50828;53.756;21.140;2023-05-12T13:20:44;100741.06;;;20.54;25.71
64460;BME280;50828;53.756;21.140;2023-05-12T13:25:52;100737.38;;;20.61;25.83
64460;BME280;50828;53.756;21.140;2023-05-12T13:31:00;100737.32;;;20.64;25.77
64460;BME280;50828;53.756;21.140;2023-05-12T13:36:08;100731.80;;;20.66;25.96
64460;BME280;50828;53.756;21.140;2023-05-12T13:41:16;100727.93;;;20.70;26.10
64460;BME280;50828;53.756;21.140;2023-05-12T13:46:23;100728.17;;;20.77;26.17
64460;BME280;50828;53.756;21.140;2023-05-12T13:51:31;100725.40;;;20.85;25.95
64460;BME280;50828;53.756;21.140;2023-05-12T13:56:41;100723.16;;;20.89;25.80
64460;BME280;50828;53.756;21.140;2023-05-12T14:01:49;100729.13;;;20.95;25.61
64460;BME280;50828;53.756;21.140;2023-05-12T14:06:57;100720.05;;;20.95;25.40
64460;BME280;50828;53.756;21.140;2023-05-12T14:12:05;100716.63;;;20.95;25.42
64460;BME280;50828;53.756;21.140;2023-05-12T14:17:14;100714.86;;;20.97;25.45
64460;BME280;50828;53.756;21.140;2023-05-12T14:22:21;100713.05;;;21.02;25.37
64460;BME280;50828;53.756;21.140;2023-05-12T14:27:31;100713.33;;;21.11;25.33
64460;BME280;50828;53.756;21.140;2023-05-12T14:32:38;100716.11;;;21.17;25.07
64460;BME280;50828;53.756;21.140;2023-05-12T14:37:46;100718.23;;;21.19;24.91
64460;BME280;50828;53.756;21.140;2023-05-12T14:42:54;100716.88;;;21.16;24.91
64460;BME280;50828;53.756;21.140;2023-05-12T14:48:02;100713.27;;;21.12;24.96
64460;BME280;50828;53.756;21.140;2023-05-12T14:53:11;100712.06;;;21.06;24.87
64460;BME280;50828;53.756;21.140;2023-05-12T14:58:19;100711.22;;;21.01;25.02
64460;BME280;50828;53.756;21.140;2023-05-12T15:03:29;100706.06;;;20.98;25.15
64460;BME280;50828;53.756;21.140;2023-05-12T15:08:38;100706.70;;;21.01;25.24
64460;BME280;50828;53.756;21.140;2023-05-12T15:13:46;100704.43;;;21.03;25.12
64460;BME280;50828;53.756;21.140;2023-05-12T15:18:53;100698.88;;;21.03;25.10
64460;BME280;50828;53.756;21.140;2023-05-12T15:24:01;100702.48;;;21.02;25.17
64460;BME280;50828;53.756;21.140;2023-05-12T15:29:13;100701.65;;;21.01;25.29
64460;BME280;50828;53.756;21.140;2023-05-12T15:34:21;100692.52;;;20.99;25.11
64460;BME280;50828;53.756;21.140;2023-05-12T15:39:29;100691.73;;;20.98;25.11
64460;BME280;50828;53.756;21.140;2023-05-12T15:44:37;100691.52;;;20.98;25.13
64460;BME280;50828;53.756;21.140;2023-05-12T15:49:47;100687.84;;;20.97;25.32
64460;BME280;50828;53.756;21.140;2023-05-12T15:54:55;100685.64;;;20.98;25.40
64460;BME280;50828;53.756;21.140;2023-05-12T16:00:05;100682.05;;;20.95;25.36
64460;BME280;50828;53.756;21.140;2023-05-12T16:05:19;100682.58;;;20.96;24.91
64460;BME280;50828;53.756;21.140;2023-05-12T16:10:27;100681.19;;;20.93;24.89
64460;BME280;50828;53.756;21.140;2023-05-12T16:15:35;100673.99;;;20.88;25.07
64460;BME280;50828;53.756;21.140;2023-05-12T16:20:43;100678.67;;;20.85;25.12
64460;BME280;50828;53.756;21.140;2023-05-12T16:25:52;100677.48;;;20.82;25.08
64460;BME280;50828;53.756;21.140;2023-05-12T16:30:59;100679.90;;;20.76;25.21
64460;BME280;50828;53.756;21.140;2023-05-12T16:36:08;100679.18;;;20.69;25.16
64460;BME280;50828;53.756;21.140;2023-05-12T16:41:16;100680.55;;;20.62;25.32
64460;BME280;50828;53.756;21.140;2023-05-12T16:46:24;100676.23;;;20.57;25.56
64460;BME280;50828;53.756;21.140;2023-05-12T16:51:32;100676.06;;;20.52;25.82
64460;BME280;50828;53.756;21.140;2023-05-12T16:56:40;100673.67;;;20.48;26.03
64460;BME280;50828;53.756;21.140;2023-05-12T17:01:48;100677.17;;;20.44;26.25
64460;BME280;50828;53.756;21.140;2023-05-12T17:06:56;100682.86;;;20.40;26.43
64460;BME280;50828;53.756;21.140;2023-05-12T17:12:05;100684.88;;;20.34;26.71
64460;BME280;50828;53.756;21.140;2023-05-12T17:17:13;100689.13;;;20.27;26.64
64460;BME280;50828;53.756;21.140;2023-05-12T17:22:22;100688.56;;;20.20;26.74
64460;BME280;50828;53.756;21.140;2023-05-12T17:27:29;100692.09;;;20.13;26.83
64460;BME280;50828;53.756;21.140;2023-05-12T17:32:38;100690.98;;;20.06;27.35
64460;BME280;50828;53.756;21.140;2023-05-12T17:37:46;100693.11;;;19.99;27.87
64460;BME280;50828;53.756;21.140;2023-05-12T17:42:57;100693.75;;;19.92;29.12
64460;BME280;50828;53.756;21.140;2023-05-12T17:48:05;100696.11;;;19.81;30.08
64460;BME280;50828;53.756;21.140;2023-05-12T17:53:13;100696.56;;;19.67;30.46
64460;BME280;50828;53.756;21.140;2023-05-12T17:58:22;100696.70;;;19.49;31.00
64460;BME280;50828;53.756;21.140;2023-05-12T18:03:30;100699.89;;;19.31;31.23
64460;BME280;50828;53.756;21.140;2023-05-12T18:08:38;100704.40;;;19.12;31.77
64460;BME280;50828;53.756;21.140;2023-05-12T18:13:46;100712.89;;;18.91;31.87
64460;BME280;50828;53.756;21.140;2023-05-12T18:18:56;100716.98;;;18.66;32.20
64460;BME280;50828;53.756;21.140;2023-05-12T18:24:04;100721.09;;;18.41;32.34
64460;BME280;50828;53.756;21.140;2023-05-12T18:29:12;100724.85;;;18.12;32.53
64460;BME280;50828;53.756;21.140;2023-05-12T18:34:20;100730.17;;;17.83;32.70
64460;BME280;50828;53.756;21.140;2023-05-12T18:39:28;100734.11;;;17.53;33.05
64460;BME280;50828;53.756;21.140;2023-05-12T18:44:36;100735.05;;;17.21;33.23
64460;BME280;50828;53.756;21.140;2023-05-12T18:49:46;100736.69;;;16.89;33.74
64460;BME280;50828;53.756;21.140;2023-05-12T18:54:54;100743.39;;;16.58;33.80
64460;BME280;50828;53.756;21.140;2023-05-12T19:00:03;100752.46;;;16.28;34.26
64460;BME280;50828;53.756;21.140;2023-05-12T19:05:11;100755.52;;;15.98;34.53
64460;BME280;50828;53.756;21.140;2023-05-12T19:10:20;100753.20;;;15.67;34.90
64460;BME280;50828;53.756;21.140;2023-05-12T19:15:28;100751.80;;;15.38;35.03
64460;BME280;50828;53.756;21.140;2023-05-12T19:20:36;100751.95;;;15.09;35.57
64460;BME280;50828;53.756;21.140;2023-05-12T19:25:47;100759.55;;;14.80;35.91
64460;BME280;50828;53.756;21.140;2023-05-12T19:30:55;100759.28;;;14.51;36.06
64460;BME280;50828;53.756;21.140;2023-05-12T19:36:03;100763.21;;;14.23;36.44
64460;BME280;50828;53.756;21.140;2023-05-12T19:41:10;100764.55;;;13.97;36.77
64460;BME280;50828;53.756;21.140;2023-05-12T19:46:18;100762.98;;;13.72;37.27
64460;BME280;50828;53.756;21.140;2023-05-12T19:51:30;100764.18;;;13.48;37.44
64460;BME280;50828;53.756;21.140;2023-05-12T19:56:38;100764.28;;;13.23;37.52
64460;BME280;50828;53.756;21.140;2023-05-12T20:01:45;100770.08;;;13.02;38.08
64460;BME280;50828;53.756;21.140;2023-05-12T20:06:54;100776.60;;;12.80;38.32
64460;BME280;50828;53.756;21.140;2023-05-12T20:12:02;100781.31;;;12.58;38.70
64460;BME280;50828;53.756;21.140;2023-05-12T20:17:13;100783.29;;;12.38;38.93
64460;BME280;50828;53.756;21.140;2023-05-12T20:22:21;100780.89;;;12.17;39.43
64460;BME280;50828;53.756;21.140;2023-05-12T20:27:29;100784.00;;;11.99;39.37
64460;BME280;50828;53.756;21.140;2023-05-12T20:32:36;100787.11;;;11.80;39.64
64460;BME280;50828;53.756;21.140;2023-05-12T20:37:44;100784.20;;;11.62;40.22
64460;BME280;50828;53.756;21.140;2023-05-12T20:42:51;100778.95;;;11.45;40.35
64460;BME280;50828;53.756;21.140;2023-05-12T20:47:59;100769.70;;;11.26;40.92
64460;BME280;50828;53.756;21.140;2023-05-12T20:53:07;100777.89;;;11.12;41.11
64460;BME280;50828;53.756;21.140;2023-05-12T20:58:14;100779.27;;;10.96;41.15
64460;BME280;50828;53.756;21.140;2023-05-12T21:03:22;100776.02;;;10.81;41.31
64460;BME280;50828;53.756;21.140;2023-05-12T21:08:31;100779.81;;;10.67;41.87
64460;BME280;50828;53.756;21.140;2023-05-12T21:13:38;100782.37;;;10.52;41.99
64460;BME280;50828;53.756;21.140;2023-05-12T21:18:46;100786.45;;;10.38;42.04
64460;BME280;50828;53.756;21.140;2023-05-12T21:23:53;100793.14;;;10.25;42.67
64460;BME280;50828;53.756;21.140;2023-05-12T21:29:01;100792.80;;;10.11;42.50
64460;BME280;50828;53.756;21.140;2023-05-12T21:34:08;100793.69;;;9.98;42.90
64460;BME280;50828;53.756;21.140;2023-05-12T21:39:16;100797.55;;;9.86;42.93
64460;BME280;50828;53.756;21.140;2023-05-12T21:44:23;100798.91;;;9.74;43.21
64460;BME280;50828;53.756;21.140;2023-05-12T21:49:31;100802.04;;;9.61;43.57
64460;BME280;50828;53.756;21.140;2023-05-12T21:54:38;100800.79;;;9.48;44.02
64460;BME280;50828;53.756;21.140;2023-05-12T21:59:46;100800.36;;;9.37;44.06
64460;BME280;50828;53.756;21.140;2023-05-12T22:04:54;100802.94;;;9.25;44.57
64460;BME280;50828;53.756;21.140;2023-05-12T22:10:02;100803.02;;;9.13;44.54
64460;BME280;50828;53.756;21.140;2023-05-12T22:15:10;100801.86;;;9.03;45.04
64460;BME280;50828;53.756;21.140;2023-05-12T22:20:18;100799.84;;;8.91;45.11
64460;BME280;50828;53.756;21.140;2023-05-12T22:25:28;100803.95;;;8.80;45.03
64460;BME280;50828;53.756;21.140;2023-05-12T22:30:35;100809.26;;;8.70;45.21
64460;BME280;50828;53.756;21.140;2023-05-12T22:35:43;100806.83;;;8.60;45.38
64460;BME280;50828;53.756;21.140;2023-05-12T22:40:51;100805.97;;;8.51;45.83
64460;BME280;50828;53.756;21.140;2023-05-12T22:45:58;100807.71;;;8.42;46.40
64460;BME280;50828;53.756;21.140;2023-05-12T22:51:06;100800.52;;;8.32;46.26
64460;BME280;50828;53.756;21.140;2023-05-12T22:56:14;100796.16;;;8.22;46.44
64460;BME280;50828;53.756;21.140;2023-05-12T23:01:21;100796.48;;;8.15;46.82
64460;BME280;50828;53.756;21.140;2023-05-12T23:06:30;100795.41;;;8.06;46.79
64460;BME280;50828;53.756;21.140;2023-05-12T23:11:37;100799.09;;;7.97;46.91
64460;BME280;50828;53.756;21.140;2023-05-12T23:16:44;100799.60;;;7.88;47.14
64460;BME280;50828;53.756;21.140;2023-05-12T23:21:52;100799.77;;;7.80;47.11
64460;BME280;50828;53.756;21.140;2023-05-12T23:27:00;100799.90;;;7.71;47.25
64460;BME280;50828;53.756;21.140;2023-05-12T23:32:08;100799.16;;;7.64;47.52
64460;BME280;50828;53.756;21.140;2023-05-12T23:37:16;100799.81;;;7.56;47.71
64460;BME280;50828;53.756;21.140;2023-05-12T23:42:24;100798.52;;;7.49;48.00
64460;BME280;50828;53.756;21.140;2023-05-12T23:47:32;100795.13;;;7.43;48.23
64460;BME280;50828;53.756;21.140;2023-05-12T23:52:39;100795.41;;;7.35;48.53
64460;BME280;50828;53.756;21.140;2023-05-12T23:57:47;100795.16;;;7.29;48.76
